Saint Louis, Missouri
Traffic Map
Current Weather Conditions
Saint Louis, Missouri
Clear
Clear
50°
Feels Like: 50°
Wind Chill: 50° Ceiling: Unl
Heat Index: 50° Visibility: 10mi
Dew Point: 45° Wind: 0mph
Humidity: 83% Direction: ° ()
Pressure: 30.03in Gusts: 0mph
Raw Report DataKCPS 210353Z AUTO 00000KT 10SM CLR 10/07 A3003 RMK AO2 SLP167 T01000072
Traffic Incident Summary
Active as of:
Severity:
Category:
InformationThere was an issue retrieving the traffic information for this location. Please try a different location or try again shortly.
Advertisements
Track Severe Weather on mobile